Winnebago Heights, Iowa
Current Conditions -  °F | °C
As of 2:56 PM on Sunday 23 Nov 2014 (Local Time) from KMCW Reporting Station
Light Rain Light Rain  
Wind Chill:   Ceiling: 500
Heat Index:   Visibility: 3mi
Dew Point:   Wind: 22mph
Humidity: 97%   Direction: 320°NW
Pressure: 29.36"   Gusts: 32mph
Location:  43.1451°N, 93.1385°W
Report Text: KMCW 232056Z AUTO 32019G28KT 3SM -RA BR OVC005 07/07 A2936 RMK AO2 WSHFT 2042 CIG 003V008 P0000 T00720067
Loading
Personal Weather Stations






























Interactive Weather Map New forecast layout! Learn more

10-Day Weather Forecast

Advertisements
Track Severe Weather on mobile